createdAt,value
2023-04-11T00:01:00.848Z,63.00
2023-04-11T00:03:29.267Z,65.80
2023-04-11T00:05:57.458Z,63.20
2023-04-11T00:08:25.606Z,62.80
2023-04-11T00:10:53.511Z,62.30
2023-04-11T00:13:21.492Z,58.30
2023-04-11T00:15:53.654Z,61.80
2023-04-11T00:18:23.101Z,66.20
2023-04-11T00:20:51.076Z,69.40
2023-04-11T00:23:19.091Z,66.30
2023-04-11T00:25:47.834Z,65.70
2023-04-11T00:28:15.912Z,65.60
2023-04-11T00:30:44.000Z,60.30
2023-04-11T00:33:11.990Z,59.40
2023-04-11T00:35:40.922Z,62.90
2023-04-11T00:38:08.917Z,76.90
2023-04-11T00:40:36.972Z,71.30
2023-04-11T00:43:04.935Z,59.60
2023-04-11T00:45:33.019Z,58.50
2023-04-11T00:48:01.346Z,58.70
2023-04-11T00:50:29.453Z,57.30
2023-04-11T00:52:58.162Z,58.10
2023-04-11T00:55:26.491Z,60.60
2023-04-11T00:57:55.633Z,56.40
2023-04-11T01:00:24.668Z,54.50
2023-04-11T01:02:52.796Z,56.70
2023-04-11T01:05:22.463Z,60.30
2023-04-11T01:07:52.437Z,67.30
2023-04-11T01:10:21.237Z,65.50
2023-04-11T01:12:50.052Z,64.00
2023-04-11T01:15:18.695Z,61.60
2023-04-11T01:17:48.298Z,60.40
2023-04-11T01:20:16.582Z,62.40
2023-04-11T01:22:45.775Z,62.40
2023-04-11T01:25:16.115Z,67.10
2023-04-11T01:27:45.014Z,55.80
2023-04-11T01:30:13.188Z,55.90
2023-04-11T01:32:41.198Z,56.30
2023-04-11T01:35:12.473Z,58.10
2023-04-11T01:37:40.677Z,58.50
2023-04-11T01:40:09.634Z,59.70
2023-04-11T01:42:38.596Z,58.40
2023-04-11T01:45:08.230Z,58.10
2023-04-11T01:47:36.650Z,70.80
2023-04-11T01:50:05.781Z,65.20
2023-04-11T01:52:33.838Z,66.60
2023-04-11T01:55:02.269Z,64.20
2023-04-11T01:57:31.153Z,63.40
2023-04-11T01:59:59.464Z,64.90
2023-04-11T02:02:27.544Z,58.10
2023-04-11T02:04:55.620Z,61.00
2023-04-11T02:07:23.691Z,62.60
2023-04-11T02:09:51.660Z,67.40
2023-04-11T02:12:19.572Z,66.40
2023-04-11T02:14:47.586Z,69.90
2023-04-11T02:17:18.573Z,72.50
2023-04-11T02:19:46.637Z,57.70
2023-04-11T02:22:16.295Z,56.80
2023-04-11T02:24:44.327Z,59.80
2023-04-11T02:27:12.570Z,65.90
2023-04-11T02:29:40.580Z,71.40
2023-04-11T02:32:09.868Z,70.10
2023-04-11T02:34:38.063Z,67.10
2023-04-11T02:37:06.480Z,67.60
2023-04-11T02:39:35.403Z,69.20
2023-04-11T02:42:03.675Z,65.20
2023-04-11T02:44:31.639Z,70.80
2023-04-11T02:47:00.377Z,73.40
2023-04-11T02:49:28.914Z,77.80
2023-04-11T02:51:57.645Z,85.90
2023-04-11T02:54:25.734Z,76.00
2023-04-11T02:56:56.025Z,77.10
2023-04-11T02:59:24.334Z,71.60
2023-04-11T03:02:00.762Z,71.30
2023-04-11T03:04:29.117Z,58.70
2023-04-11T03:07:04.452Z,65.20
2023-04-11T03:09:32.578Z,67.00
2023-04-11T03:12:01.581Z,66.10
2023-04-11T03:14:30.034Z,80.60
2023-04-11T03:16:58.040Z,62.50
2023-04-11T03:19:26.673Z,64.00
2023-04-11T03:21:55.539Z,67.00
2023-04-11T03:24:23.651Z,71.10
2023-04-11T03:26:52.449Z,72.90
2023-04-11T03:29:20.934Z,65.40
2023-04-11T03:32:09.194Z,63.00
2023-04-11T03:34:39.540Z,63.20
2023-04-11T03:37:08.658Z,72.30
2023-04-11T03:39:37.878Z,71.50
2023-04-11T03:42:06.043Z,82.50
2023-04-11T03:44:34.133Z,85.70
2023-04-11T03:47:02.813Z,66.20
2023-04-11T03:49:36.757Z,64.30
2023-04-11T03:52:07.636Z,71.90
2023-04-11T03:54:40.545Z,58.70
2023-04-11T03:59:38.648Z,74.50
2023-04-11T04:02:12.016Z,72.80
2023-04-11T04:04:47.320Z,60.10
2023-04-11T04:07:24.825Z,63.90
2023-04-11T04:09:55.418Z,64.30
2023-04-11T04:12:23.794Z,65.60
2023-04-11T04:15:05.734Z,67.20
2023-04-11T04:17:33.664Z,65.20
2023-04-11T04:20:07.183Z,59.50
2023-04-11T04:22:37.906Z,90.40
2023-04-11T04:25:07.162Z,56.30
2023-04-11T04:27:36.472Z,53.20
2023-04-11T04:30:04.958Z,57.10
2023-04-11T04:32:59.257Z,65.60
2023-04-11T04:35:28.298Z,99.00
2023-04-11T04:37:57.308Z,87.60
2023-04-11T04:40:44.318Z,73.50
2023-04-11T04:43:18.563Z,70.30
2023-04-11T04:45:51.446Z,69.50
2023-04-11T04:48:25.717Z,70.50
2023-04-11T04:50:53.825Z,89.00
2023-04-11T04:53:22.081Z,76.20
2023-04-11T04:55:54.383Z,76.10
2023-04-11T04:58:22.804Z,72.70
2023-04-11T05:00:56.140Z,69.00
2023-04-11T05:03:29.105Z,66.70
2023-04-11T05:05:59.716Z,75.70
2023-04-11T05:08:28.133Z,76.10
2023-04-11T05:10:58.930Z,76.90
2023-04-11T05:13:27.218Z,78.60
2023-04-11T05:15:55.277Z,72.30
2023-04-11T05:18:26.719Z,69.40
2023-04-11T05:20:54.641Z,60.10
2023-04-11T05:23:25.278Z,55.20
2023-04-11T05:25:54.008Z,50.00
2023-04-11T05:28:22.113Z,33.00
2023-04-11T05:30:50.687Z,29.70
2023-04-11T05:33:18.794Z,23.40
2023-04-11T05:35:47.920Z,27.00
2023-04-11T05:38:16.015Z,28.50
2023-04-11T05:40:43.985Z,20.10
2023-04-11T05:43:14.932Z,20.00
2023-04-11T05:45:47.714Z,23.50
2023-04-11T05:50:50.578Z,12.00
2023-04-11T05:53:19.524Z,14.80
2023-04-11T05:55:47.471Z,15.00
2023-04-11T05:58:16.248Z,19.80
2023-04-11T06:00:46.139Z,16.50
2023-04-11T06:03:14.262Z,18.40
2023-04-11T06:05:42.378Z,20.50
2023-04-11T06:08:11.714Z,15.80
2023-04-11T06:10:39.622Z,16.10
2023-04-11T06:13:07.539Z,18.10
2023-04-11T06:15:35.592Z,18.70
2023-04-11T06:18:03.801Z,17.90
2023-04-11T06:20:31.759Z,17.10
2023-04-11T06:23:01.585Z,19.20
2023-04-11T06:25:29.884Z,18.90
2023-04-11T06:27:58.011Z,19.20
2023-04-11T06:30:26.260Z,18.90
2023-04-11T06:32:54.283Z,13.30
2023-04-11T06:35:25.090Z,12.20
2023-04-11T06:37:53.119Z,12.30
2023-04-11T06:40:21.260Z,12.80
2023-04-11T06:42:49.263Z,12.80
2023-04-11T06:45:17.283Z,11.80
2023-04-11T06:47:45.341Z,10.80
2023-04-11T06:50:13.497Z,9.50
2023-04-11T06:52:41.517Z,11.20
2023-04-11T06:55:10.340Z,11.60
2023-04-11T06:57:38.262Z,12.10
2023-04-11T07:00:08.931Z,12.20
2023-04-11T07:02:37.086Z,13.20
2023-04-11T07:05:06.259Z,13.40
2023-04-11T07:07:34.229Z,12.30
2023-04-11T07:10:02.292Z,10.80
2023-04-11T07:12:30.637Z,10.60
2023-04-11T07:14:58.672Z,11.30
2023-04-11T07:17:26.727Z,12.20
2023-04-11T07:19:54.822Z,12.70
2023-04-11T07:22:23.923Z,9.90
2023-04-11T07:24:57.588Z,9.20
2023-04-11T07:27:26.724Z,10.30
2023-04-11T07:29:54.720Z,9.70
2023-04-11T07:32:22.834Z,9.10
2023-04-11T07:34:50.966Z,9.90
2023-04-11T07:37:18.915Z,8.70
2023-04-11T07:39:46.915Z,9.00
2023-04-11T07:42:14.795Z,9.50
2023-04-11T07:44:42.739Z,8.60
2023-04-11T07:47:10.805Z,9.00
2023-04-11T07:49:38.927Z,9.10
2023-04-11T07:52:06.873Z,10.90
2023-04-11T07:54:34.918Z,10.40
2023-04-11T07:57:03.113Z,11.40
2023-04-11T07:59:31.050Z,9.90
2023-04-11T08:02:04.936Z,10.90
2023-04-11T08:05:31.033Z,9.50
2023-04-11T08:08:59.715Z,9.50
2023-04-11T08:11:28.330Z,16.40
2023-04-11T08:13:56.431Z,12.10
2023-04-11T08:16:24.901Z,9.70
2023-04-11T08:18:53.033Z,10.10
2023-04-11T08:21:23.694Z,9.80
2023-04-11T08:23:51.651Z,9.80
2023-04-11T08:26:20.236Z,11.00
2023-04-11T08:28:48.277Z,10.50
2023-04-11T08:31:16.245Z,9.20
2023-04-11T08:33:44.192Z,9.60
2023-04-11T08:36:12.644Z,9.80
2023-04-11T08:38:40.938Z,9.20
2023-04-11T08:41:08.926Z,8.70
2023-04-11T08:43:40.018Z,9.30
2023-04-11T08:46:08.560Z,9.70
2023-04-11T08:48:36.847Z,8.60
2023-04-11T08:51:06.142Z,8.70
2023-04-11T08:53:37.718Z,8.80
2023-04-11T08:56:06.567Z,9.50
2023-04-11T08:58:34.594Z,10.40
2023-04-11T09:01:25.401Z,14.30
2023-04-11T09:04:54.281Z,10.80
2023-04-11T09:08:11.825Z,9.70
2023-04-11T09:10:55.635Z,10.10
2023-04-11T09:13:28.551Z,9.40
2023-04-11T09:16:09.676Z,8.60
2023-04-11T09:18:47.424Z,9.20
2023-04-11T09:21:17.230Z,9.60
2023-04-11T09:23:45.190Z,9.50
2023-04-11T09:26:25.060Z,9.80
2023-04-11T09:28:53.922Z,10.60
2023-04-11T09:31:41.430Z,8.90
2023-04-11T09:34:09.794Z,7.30
2023-04-11T09:36:39.634Z,6.90
2023-04-11T09:39:20.515Z,6.60
2023-04-11T09:41:48.685Z,8.60
2023-04-11T09:44:16.660Z,8.20
2023-04-11T09:46:58.877Z,7.70
2023-04-11T09:49:27.996Z,7.00
2023-04-11T09:51:55.984Z,7.20
2023-04-11T09:54:32.152Z,6.80
2023-04-11T09:57:00.336Z,7.80
2023-04-11T09:59:29.948Z,7.20
2023-04-11T10:01:58.905Z,6.10
2023-04-11T10:04:28.207Z,9.00
2023-04-11T10:07:17.254Z,7.60
2023-04-11T10:09:46.211Z,6.50
2023-04-11T10:12:30.753Z,5.60
2023-04-11T10:17:34.137Z,5.50
2023-04-11T10:20:02.143Z,6.30
2023-04-11T10:23:00.126Z,5.50
2023-04-11T10:25:28.899Z,7.90
2023-04-11T10:28:01.602Z,6.00
2023-04-11T10:30:41.765Z,5.40
2023-04-11T10:33:11.834Z,11.00
2023-04-11T10:36:12.557Z,6.10
2023-04-11T10:38:49.659Z,5.80
2023-04-11T10:41:25.117Z,5.50
2023-04-11T10:44:13.762Z,5.60
2023-04-11T10:46:46.962Z,5.60
2023-04-11T10:49:23.187Z,6.50
2023-04-11T10:51:52.136Z,6.20
2023-04-11T10:54:26.918Z,5.90
2023-04-11T10:56:55.728Z,6.20
2023-04-11T10:59:32.496Z,5.80
2023-04-11T11:02:02.098Z,6.10
2023-04-11T11:04:37.390Z,6.20
2023-04-11T11:07:07.721Z,6.60
2023-04-11T11:09:36.425Z,6.00
2023-04-11T11:12:20.496Z,6.70
2023-04-11T11:14:48.502Z,7.10
2023-04-11T11:17:17.416Z,5.50
2023-04-11T11:19:47.091Z,5.50
2023-04-11T11:22:25.749Z,6.00
2023-04-11T11:24:53.964Z,6.10
2023-04-11T11:27:24.150Z,5.80
2023-04-11T11:29:53.361Z,5.70
2023-04-11T11:32:28.934Z,6.10
2023-04-11T11:34:57.827Z,6.70
2023-04-11T11:37:26.254Z,6.40
2023-04-11T11:39:54.388Z,5.70
2023-04-11T11:42:22.411Z,5.90
2023-04-11T11:44:50.504Z,5.70
2023-04-11T11:47:18.603Z,5.90
2023-04-11T11:49:47.540Z,5.80
2023-04-11T11:52:39.791Z,6.20
2023-04-11T11:55:29.201Z,6.00
2023-04-11T11:58:02.269Z,6.40
2023-04-11T12:00:35.023Z,6.50
2023-04-11T12:03:03.465Z,6.70
2023-04-11T12:05:33.640Z,6.50
2023-04-11T12:08:04.398Z,6.80
2023-04-11T12:10:41.086Z,6.50
2023-04-11T12:13:16.720Z,6.90
2023-04-11T12:15:48.884Z,6.60
2023-04-11T12:18:20.572Z,7.00
2023-04-11T12:20:49.298Z,6.50
2023-04-11T12:23:18.528Z,6.50
2023-04-11T12:25:47.474Z,6.30
2023-04-11T12:28:16.357Z,6.10
2023-04-11T12:30:44.298Z,6.30
2023-04-11T12:33:12.486Z,6.20
2023-04-11T12:35:40.391Z,7.30
2023-04-11T12:38:08.949Z,7.30
2023-04-11T12:40:37.765Z,6.40
2023-04-11T12:43:05.904Z,8.40
2023-04-11T12:45:33.819Z,6.90
2023-04-11T12:48:02.028Z,7.00
2023-04-11T12:50:29.950Z,7.90
2023-04-11T12:52:57.928Z,8.20
2023-04-11T12:55:26.084Z,7.20
2023-04-11T12:57:54.214Z,8.40
2023-04-11T13:00:22.219Z,9.20
2023-04-11T13:02:50.442Z,7.50
2023-04-11T13:05:19.988Z,7.10
2023-04-11T13:07:47.962Z,6.80
2023-04-11T13:10:16.546Z,7.50
2023-04-11T13:12:45.614Z,7.30
2023-04-11T13:15:17.093Z,7.80
2023-04-11T13:17:49.328Z,7.80
2023-04-11T13:20:17.576Z,7.50
2023-04-11T13:22:46.232Z,8.00
2023-04-11T13:25:14.142Z,7.70
2023-04-11T13:27:42.465Z,7.50
2023-04-11T13:30:11.455Z,8.10
2023-04-11T13:32:39.576Z,8.10
2023-04-11T13:35:08.348Z,7.80
2023-04-11T13:37:36.303Z,8.10
2023-04-11T13:40:07.945Z,7.20
2023-04-11T13:42:35.948Z,8.20
2023-04-11T13:45:04.665Z,7.90
2023-04-11T13:47:34.856Z,7.60
2023-04-11T13:50:06.270Z,8.20
2023-04-11T13:52:34.235Z,8.00
2023-04-11T13:55:02.192Z,7.70
2023-04-11T13:57:30.139Z,8.20
2023-04-11T13:59:58.342Z,8.40
2023-04-11T14:02:26.892Z,7.30
2023-04-11T14:04:54.926Z,7.40
2023-04-11T14:07:22.876Z,7.10
2023-04-11T14:09:50.728Z,7.30
2023-04-11T14:12:18.818Z,9.20
2023-04-11T14:14:46.833Z,9.20
2023-04-11T14:17:14.816Z,6.80
2023-04-11T14:19:43.131Z,7.30
2023-04-11T14:22:11.190Z,7.30
2023-04-11T14:24:39.589Z,8.00
2023-04-11T14:27:08.593Z,8.00
2023-04-11T14:29:37.675Z,8.20
2023-04-11T14:32:07.421Z,8.70
2023-04-11T14:34:35.422Z,7.70
2023-04-11T14:37:03.620Z,8.40
2023-04-11T14:39:33.037Z,13.00
2023-04-11T14:42:04.046Z,11.10
2023-04-11T14:44:32.002Z,12.60
2023-04-11T14:46:59.908Z,8.60
2023-04-11T14:49:28.285Z,8.70
2023-04-11T14:51:56.367Z,9.70
2023-04-11T14:54:24.712Z,10.10
2023-04-11T14:56:53.008Z,11.40
2023-04-11T14:59:21.185Z,11.20
2023-04-11T15:01:49.375Z,9.80
2023-04-11T15:04:18.653Z,9.70
2023-04-11T15:06:47.615Z,12.70
2023-04-11T15:09:20.417Z,13.00
2023-04-11T15:11:51.761Z,12.70
2023-04-11T15:14:19.905Z,13.60
2023-04-11T15:16:49.973Z,12.30
2023-04-11T15:19:17.924Z,12.60
2023-04-11T15:21:49.327Z,12.40
2023-04-11T15:24:18.350Z,12.60
2023-04-11T15:26:46.749Z,12.90
2023-04-11T15:29:20.745Z,12.60
2023-04-11T15:32:08.526Z,13.60
2023-04-11T15:35:02.595Z,15.20
2023-04-11T15:37:31.940Z,13.70
2023-04-11T15:40:52.558Z,16.00
2023-04-11T15:46:35.608Z,8.60
2023-04-11T15:49:04.389Z,9.20
2023-04-11T15:54:18.295Z,10.30
2023-04-11T15:57:02.217Z,9.10
2023-04-11T15:59:33.649Z,9.20
2023-04-11T16:02:08.758Z,8.90
2023-04-11T16:04:43.952Z,6.80
2023-04-11T16:07:14.154Z,6.90
2023-04-11T16:09:42.730Z,5.90
2023-04-11T16:12:11.474Z,5.30
2023-04-11T16:14:39.457Z,5.00
2023-04-11T16:17:07.431Z,6.60
2023-04-11T16:19:41.509Z,7.80
2023-04-11T16:22:10.846Z,8.70
2023-04-11T16:24:46.778Z,9.50
2023-04-11T16:27:15.132Z,10.00
2023-04-11T16:29:50.161Z,8.90
2023-04-11T16:32:18.391Z,9.70
2023-04-11T16:34:46.361Z,10.10
2023-04-11T16:37:15.043Z,7.80
2023-04-11T16:39:42.961Z,8.20
2023-04-11T16:42:17.195Z,11.00
2023-04-11T16:44:45.474Z,10.90
2023-04-11T16:47:13.974Z,9.60
2023-04-11T16:49:42.017Z,10.00
2023-04-11T16:52:15.499Z,10.00
2023-04-11T16:54:44.316Z,7.60
2023-04-11T16:57:12.332Z,8.10
2023-04-11T16:59:41.455Z,8.20
2023-04-11T17:02:09.408Z,8.00
2023-04-11T17:04:38.674Z,9.20
2023-04-11T17:07:09.713Z,10.90
2023-04-11T17:09:39.484Z,9.80
2023-04-11T17:12:12.797Z,8.20
2023-04-11T17:14:41.329Z,11.20
2023-04-11T17:17:09.703Z,10.10
2023-04-11T17:19:44.241Z,9.30
2023-04-11T17:22:18.064Z,8.20
2023-04-11T17:24:51.752Z,7.90
2023-04-11T17:27:43.583Z,10.70
2023-04-11T17:30:17.639Z,11.80
2023-04-11T17:32:53.665Z,15.90
2023-04-11T17:35:21.667Z,8.20
2023-04-11T17:37:50.780Z,9.70
2023-04-11T17:40:18.895Z,15.30
2023-04-11T17:42:47.086Z,17.00
2023-04-11T17:45:18.360Z,13.60
2023-04-11T17:48:11.917Z,17.70
2023-04-11T17:50:40.339Z,19.90
2023-04-11T17:53:08.443Z,24.00
2023-04-11T17:55:37.275Z,18.70
2023-04-11T17:58:10.843Z,16.70
2023-04-11T18:00:52.559Z,17.30
2023-04-11T18:03:45.279Z,15.60
2023-04-11T18:06:13.668Z,13.70
2023-04-11T18:09:25.213Z,14.50
2023-04-11T18:11:53.209Z,12.00
2023-04-11T18:14:21.662Z,8.30
2023-04-11T18:16:50.028Z,9.00
2023-04-11T18:19:20.138Z,9.20
2023-04-11T18:21:50.647Z,11.00
2023-04-11T18:24:18.604Z,10.20
2023-04-11T18:26:47.470Z,11.90
2023-04-11T18:29:20.465Z,10.70
2023-04-11T18:31:48.435Z,11.10
2023-04-11T18:34:16.816Z,10.30
2023-04-11T18:36:47.117Z,10.70
2023-04-11T18:39:17.636Z,9.50
2023-04-11T18:41:47.082Z,9.00
2023-04-11T18:44:16.005Z,9.00
2023-04-11T18:47:20.790Z,10.00
2023-04-11T18:49:49.242Z,10.40
2023-04-11T18:52:17.546Z,10.70
2023-04-11T18:54:46.053Z,13.20
2023-04-11T18:57:19.751Z,11.20
2023-04-11T18:59:50.046Z,12.00
2023-04-11T19:02:19.709Z,10.80
2023-04-11T19:04:55.614Z,10.50
2023-04-11T19:07:24.337Z,10.30
2023-04-11T19:09:53.154Z,11.80
2023-04-11T19:12:27.782Z,9.70
2023-04-11T19:14:56.248Z,9.50
2023-04-11T19:17:24.375Z,9.10
2023-04-11T19:19:52.898Z,9.50
2023-04-11T19:22:28.007Z,8.80
2023-04-11T19:25:03.447Z,8.00
2023-04-11T19:27:31.815Z,13.60
2023-04-11T19:30:11.363Z,8.30
2023-04-11T19:32:47.751Z,9.30
2023-04-11T19:35:17.133Z,8.10
2023-04-11T19:37:45.466Z,8.40
2023-04-11T19:40:13.985Z,8.80
2023-04-11T19:42:43.302Z,10.80
2023-04-11T19:45:12.859Z,9.30
2023-04-11T19:47:41.836Z,9.70
2023-04-11T19:50:13.244Z,9.50
2023-04-11T19:52:42.741Z,9.30
2023-04-11T19:55:12.421Z,9.00
2023-04-11T19:57:46.443Z,9.10
2023-04-11T20:00:16.399Z,8.40
2023-04-11T20:02:46.622Z,8.50
2023-04-11T20:05:24.768Z,9.90
2023-04-11T20:07:59.808Z,13.00
2023-04-11T20:10:34.321Z,12.60
2023-04-11T20:13:09.163Z,13.50
2023-04-11T20:15:37.284Z,13.40
2023-04-11T20:18:05.791Z,13.10
2023-04-11T20:20:33.966Z,12.80
2023-04-11T20:23:05.013Z,12.70
2023-04-11T20:25:34.459Z,11.80
2023-04-11T20:28:02.742Z,11.90
2023-04-11T20:30:30.895Z,10.70
2023-04-11T20:32:59.081Z,10.80
2023-04-11T20:35:32.784Z,11.60
2023-04-11T20:38:00.815Z,11.70
2023-04-11T20:40:28.809Z,12.20
2023-04-11T20:42:57.413Z,30.20
2023-04-11T20:45:27.933Z,12.20
2023-04-11T20:47:57.724Z,12.10
2023-04-11T20:50:25.844Z,12.00
2023-04-11T20:52:54.169Z,12.20
2023-04-11T20:55:27.742Z,12.40
2023-04-11T20:57:55.940Z,13.20
2023-04-11T21:00:24.847Z,14.00
2023-04-11T21:02:53.741Z,15.00
2023-04-11T21:05:25.731Z,14.50
2023-04-11T21:07:54.872Z,16.00
2023-04-11T21:10:22.898Z,16.90
2023-04-11T21:12:59.933Z,17.70
2023-04-11T21:15:36.106Z,17.80
2023-04-11T21:18:09.694Z,18.40
2023-04-11T21:20:57.246Z,18.90
2023-04-11T21:23:25.429Z,18.40
2023-04-11T21:25:58.537Z,17.90
2023-04-11T21:28:26.537Z,20.60
2023-04-11T21:30:54.518Z,19.80
2023-04-11T21:33:28.149Z,21.00
2023-04-11T21:35:56.621Z,19.30
2023-04-11T21:38:24.856Z,20.90
2023-04-11T21:40:52.818Z,20.50
2023-04-11T21:43:22.056Z,20.40
2023-04-11T21:45:50.049Z,21.70
2023-04-11T21:48:18.084Z,21.70
2023-04-11T21:50:46.173Z,21.50
2023-04-11T21:53:14.214Z,21.80
2023-04-11T21:55:46.750Z,21.80
2023-04-11T21:58:28.055Z,22.30
2023-04-11T22:01:11.155Z,21.70
2023-04-11T22:03:41.469Z,21.30
2023-04-11T22:06:11.178Z,21.00
2023-04-11T22:08:42.314Z,21.80
2023-04-11T22:11:10.386Z,20.40
2023-04-11T22:13:39.724Z,20.80
2023-04-11T22:16:08.068Z,21.30
2023-04-11T22:18:46.811Z,19.60
2023-04-11T22:21:19.551Z,22.70
2023-04-11T22:23:54.929Z,21.10
2023-04-11T22:26:35.146Z,21.20
2023-04-11T22:29:06.536Z,23.00
2023-04-11T22:31:35.069Z,20.70
2023-04-11T22:34:03.289Z,20.50
2023-04-11T22:36:35.908Z,21.20
2023-04-11T22:39:07.982Z,20.70
2023-04-11T22:41:38.708Z,20.40
2023-04-11T22:44:07.059Z,23.30
2023-04-11T22:46:38.779Z,21.60
2023-04-11T22:49:09.744Z,23.40
2023-04-11T22:51:41.112Z,25.30
2023-04-11T22:54:09.720Z,23.50
2023-04-11T22:56:37.608Z,20.60
2023-04-11T22:59:05.512Z,21.20
2023-04-11T23:01:33.529Z,20.40
2023-04-11T23:04:01.747Z,22.00
2023-04-11T23:06:29.834Z,22.00
2023-04-11T23:08:57.716Z,23.90
2023-04-11T23:11:25.786Z,22.20
2023-04-11T23:13:54.662Z,22.70
2023-04-11T23:16:22.593Z,23.00
2023-04-11T23:18:50.461Z,23.20
2023-04-11T23:21:18.376Z,26.00
2023-04-11T23:23:46.274Z,23.90
2023-04-11T23:26:18.956Z,22.00
2023-04-11T23:28:47.368Z,20.20
2023-04-11T23:31:16.048Z,21.10
2023-04-11T23:33:44.258Z,22.00
2023-04-11T23:36:12.965Z,20.90
2023-04-11T23:38:40.927Z,23.10
2023-04-11T23:41:08.933Z,21.70
2023-04-11T23:43:36.940Z,20.30
2023-04-11T23:46:05.309Z,21.20
2023-04-11T23:48:33.292Z,21.10
2023-04-11T23:51:07.339Z,21.10
2023-04-11T23:56:19.652Z,21.70
2023-04-11T23:58:54.587Z,20.90
